Time;durP1;ratioP1;P1;durP2;ratioP2;P2;SDS_P1;SDS_P2;PMS_P1;PMS_P2;Temp;Humidity;BMP_temperature;BMP_pressure;BME280_temperature;BME280_humidity;BME280_pressure;Samples;Min_cycle;Max_cycle;Signal;HPM_P1;HPM_P2
2023/01/13 00:00:26;;;;;;;10.95;7.25;;;8.70;96.70;;;;;;4970048;28;20074;-73
2023/01/13 00:02:54;;;;;;;10.32;6.35;;;8.70;96.70;;;;;;4976856;28;20415;-73
2023/01/13 00:05:22;;;;;;;9.98;6.57;;;8.70;96.70;;;;;;4982438;28;20050;-74
2023/01/13 00:07:49;;;;;;;11.60;7.45;;;8.70;96.70;;;;;;4979832;28;20474;-73
2023/01/13 00:10:17;;;;;;;10.23;7.10;;;8.60;96.70;;;;;;4979254;28;21118;-73
2023/01/13 00:12:46;;;;;;;13.20;7.85;;;8.60;96.70;;;;;;4974081;28;20042;-72
2023/01/13 00:15:14;;;;;;;11.20;6.63;;;8.70;96.70;;;;;;4977253;28;20812;-72
2023/01/13 00:17:41;;;;;;;11.35;7.10;;;8.70;96.70;;;;;;4972089;28;20134;-73
2023/01/13 00:20:10;;;;;;;11.57;7.03;;;8.60;96.70;;;;;;4964647;28;20042;-72
2023/01/13 00:22:38;;;;;;;10.38;7.13;;;8.60;96.70;;;;;;4999554;28;20046;-72
2023/01/13 00:25:06;;;;;;;9.38;6.45;;;8.70;96.70;;;;;;4976977;28;20137;-73
2023/01/13 00:27:35;;;;;;;9.80;6.63;;;8.70;96.70;;;;;;4983440;28;20104;-72
2023/01/13 00:30:05;;;;;;;10.10;6.45;;;8.60;96.70;;;;;;4977536;28;20065;-73
2023/01/13 00:32:33;;;;;;;9.80;6.78;;;8.60;96.70;;;;;;4979671;28;20093;-73
2023/01/13 00:35:00;;;;;;;8.63;6.25;;;8.60;96.70;;;;;;4988070;28;20148;-74
2023/01/13 00:37:28;;;;;;;12.88;6.78;;;8.50;96.70;;;;;;4977936;28;20058;-74
2023/01/13 00:39:56;;;;;;;10.20;6.32;;;8.50;96.70;;;;;;4983027;28;20485;-73
2023/01/13 00:45:12;;;;;;;10.70;5.67;;;8.60;96.70;;;;;;4971367;28;20058;-74
2023/01/13 00:47:39;;;;;;;8.25;5.60;;;8.60;96.70;;;;;;4981677;28;20096;-73
2023/01/13 00:50:09;;;;;;;6.53;5.60;;;8.50;96.70;;;;;;4958671;28;20713;-73
2023/01/13 00:52:36;;;;;;;7.13;4.88;;;8.60;96.70;;;;;;4970925;28;20082;-73
2023/01/13 00:55:05;;;;;;;6.93;4.60;;;8.50;96.70;;;;;;4970185;28;20533;-73
2023/01/13 00:57:33;;;;;;;6.65;4.50;;;8.50;96.70;;;;;;4977333;28;20070;-73
2023/01/13 01:00:01;;;;;;;7.00;3.83;;;8.40;96.70;;;;;;4972517;28;20047;-73
2023/01/13 01:02:30;;;;;;;7.03;3.95;;;8.40;96.70;;;;;;4977619;28;20042;-73
2023/01/13 01:04:58;;;;;;;7.32;4.50;;;8.50;96.70;;;;;;4971252;28;20043;-73
2023/01/13 01:07:26;;;;;;;8.38;4.40;;;8.50;96.70;;;;;;4974029;28;20058;-73
2023/01/13 01:09:54;;;;;;;5.60;3.95;;;8.50;96.70;;;;;;4968314;28;20097;-74
2023/01/13 01:12:21;;;;;;;7.22;4.35;;;8.50;96.70;;;;;;4972622;28;20045;-74
2023/01/13 01:14:49;;;;;;;8.13;5.20;;;8.50;96.70;;;;;;4971682;28;20038;-73
2023/01/13 01:17:16;;;;;;;8.20;5.03;;;8.60;96.70;;;;;;4984572;28;20046;-73
2023/01/13 01:19:46;;;;;;;8.45;4.97;;;8.50;96.70;;;;;;4980668;28;20069;-73
2023/01/13 01:22:13;;;;;;;6.95;5.03;;;8.50;96.70;;;;;;4976668;28;20054;-73
2023/01/13 01:24:41;;;;;;;7.50;5.22;;;8.50;96.70;;;;;;4966237;28;20609;-74
2023/01/13 01:27:08;;;;;;;9.80;5.72;;;8.40;96.70;;;;;;4965056;28;20660;-73
2023/01/13 01:29:36;;;;;;;9.68;5.50;;;8.50;96.70;;;;;;4974177;28;20046;-73
2023/01/13 01:32:04;;;;;;;8.02;5.85;;;8.50;96.70;;;;;;4974344;28;20148;-73
2023/01/13 01:34:32;;;;;;;8.98;5.57;;;8.40;96.70;;;;;;4972601;28;20108;-74
2023/01/13 01:37:01;;;;;;;11.90;6.18;;;8.40;96.70;;;;;;4979090;28;20046;-73
2023/01/13 01:39:28;;;;;;;8.02;5.75;;;8.30;96.70;;;;;;4978343;28;20778;-73
2023/01/13 01:44:58;;;;;;;9.77;5.88;;;8.30;96.70;;;;;;4979133;28;20997;-73
2023/01/13 01:47:28;;;;;;;7.13;5.45;;;8.30;96.70;;;;;;4974778;28;20523;-74
2023/01/13 01:50:01;;;;;;;8.57;5.75;;;8.30;96.70;;;;;;4974038;28;20048;-73
2023/01/13 01:52:35;;;;;;;8.30;5.68;;;8.30;96.70;;;;;;4979774;28;20046;-71
2023/01/13 01:55:05;;;;;;;8.57;5.97;;;8.40;96.70;;;;;;4977664;28;20046;-72
2023/01/13 01:57:39;;;;;;;8.75;5.30;;;8.40;96.70;;;;;;4973819;28;20071;-72
2023/01/13 02:00:08;;;;;;;8.25;5.90;;;8.40;96.70;;;;;;4966185;28;20046;-72
2023/01/13 02:02:42;;;;;;;9.15;5.28;;;8.40;96.70;;;;;;4967086;28;20074;-72
2023/01/13 02:05:10;;;;;;;10.80;5.32;;;8.50;96.70;;;;;;4969249;28;20059;-72
2023/01/13 02:07:41;;;;;;;8.43;5.65;;;8.40;96.70;;;;;;4972915;28;20047;-73
2023/01/13 02:10:12;;;;;;;7.50;5.18;;;8.40;96.70;;;;;;4996605;28;20602;-74
2023/01/13 02:12:42;;;;;;;8.13;5.22;;;8.40;96.70;;;;;;4992578;28;20120;-73
2023/01/13 02:15:12;;;;;;;8.25;5.35;;;8.30;96.70;;;;;;4965484;28;20519;-73
2023/01/13 02:18:11;;;;;;;8.02;5.22;;;8.30;96.70;;;;;;4965291;28;20465;-73
2023/01/13 02:21:10;;;;;;;9.27;5.40;;;8.20;96.70;;;;;;4972042;28;20149;-73
2023/01/13 02:27:39;;;;;;;8.65;6.00;;;8.20;96.70;;;;;;4969493;28;20074;-73
2023/01/13 02:33:30;;;;;;;7.45;5.53;;;8.20;96.70;;;;;;4970577;28;20097;-73
2023/01/13 02:36:03;;;;;;;7.65;4.97;;;8.30;96.70;;;;;;4969704;28;20089;-73
2023/01/13 02:38:34;;;;;;;8.20;5.25;;;8.30;96.70;;;;;;4979161;28;20497;-73
2023/01/13 02:44:07;;;;;;;9.48;5.22;;;8.30;96.70;;;;;;4948136;28;20779;-73
2023/01/13 02:46:45;;;;;;;9.70;5.53;;;8.20;96.70;;;;;;4973992;28;20050;-73
2023/01/13 02:49:21;;;;;;;9.30;5.32;;;8.20;96.70;;;;;;4975086;28;20057;-73
2023/01/13 02:51:52;;;;;;;9.18;5.05;;;8.30;96.70;;;;;;4974330;28;20051;-73
2023/01/13 02:54:24;;;;;;;7.05;4.57;;;8.20;96.70;;;;;;4968949;28;20080;-73
2023/01/13 02:56:55;;;;;;;8.35;4.82;;;8.30;96.70;;;;;;4965405;28;20053;-74
2023/01/13 02:59:25;;;;;;;7.03;4.75;;;8.30;96.70;;;;;;4980331;28;20086;-74
2023/01/13 03:01:58;;;;;;;7.80;5.05;;;8.30;96.70;;;;;;4976044;28;20046;-74
2023/01/13 03:04:48;;;;;;;6.00;4.72;;;8.30;96.70;;;;;;4972929;28;20047;-73
2023/01/13 03:07:45;;;;;;;8.15;5.30;;;8.30;96.70;;;;;;4975069;28;20046;-74
2023/01/13 03:10:33;;;;;;;8.43;5.40;;;8.20;96.70;;;;;;4960268;28;20719;-74
2023/01/13 03:13:13;;;;;;;7.78;5.10;;;8.20;96.70;;;;;;4972397;28;20046;-73
2023/01/13 03:15:51;;;;;;;8.23;5.25;;;8.30;96.70;;;;;;4996788;28;20046;-74
2023/01/13 03:18:32;;;;;;;11.32;5.65;;;8.30;96.70;;;;;;4972934;28;20046;-73
2023/01/13 03:21:06;;;;;;;8.75;5.28;;;8.30;96.70;;;;;;4975005;28;20060;-74
2023/01/13 03:23:40;;;;;;;8.02;5.53;;;8.30;96.70;;;;;;4966108;28;20054;-73
2023/01/13 03:26:15;;;;;;;8.38;4.95;;;8.30;96.70;;;;;;4975623;28;20046;-74
2023/01/13 03:28:48;;;;;;;6.65;4.93;;;8.30;96.70;;;;;;4974120;28;20051;-73
2023/01/13 03:31:20;;;;;;;9.10;5.72;;;8.30;96.70;;;;;;4968127;28;20054;-73
2023/01/13 03:33:56;;;;;;;6.88;5.00;;;8.30;96.70;;;;;;4979135;28;20694;-73
2023/01/13 03:36:27;;;;;;;8.83;5.83;;;8.20;96.70;;;;;;4974111;28;20410;-73
2023/01/13 03:38:59;;;;;;;5.85;4.72;;;8.20;96.70;;;;;;4977272;28;20393;-73
2023/01/13 03:41:32;;;;;;;7.28;5.20;;;8.30;96.70;;;;;;4971432;28;20136;-75
2023/01/13 03:44:23;;;;;;;8.45;5.60;;;8.40;96.70;;;;;;4989710;28;20054;-74
2023/01/13 03:47:02;;;;;;;9.02;4.78;;;8.30;96.70;;;;;;4966646;28;20587;-73
2023/01/13 03:49:37;;;;;;;9.07;5.50;;;8.30;96.70;;;;;;4980567;28;20715;-73
2023/01/13 03:52:08;;;;;;;7.57;5.05;;;8.30;96.70;;;;;;4978837;28;20043;-73
2023/01/13 03:54:43;;;;;;;7.68;5.18;;;8.30;96.70;;;;;;4976392;28;20078;-73
2023/01/13 03:57:15;;;;;;;8.18;5.10;;;8.30;96.70;;;;;;4972963;28;20046;-73
2023/01/13 03:59:46;;;;;;;6.82;4.47;;;8.40;96.70;;;;;;4972815;28;20043;-73
2023/01/13 04:02:24;;;;;;;8.07;5.43;;;8.40;96.70;;;;;;4987538;28;20054;-73
2023/01/13 04:04:58;;;;;;;7.78;5.20;;;8.40;96.70;;;;;;4981616;28;20074;-73
2023/01/13 04:07:35;;;;;;;7.70;4.90;;;8.40;96.70;;;;;;4956848;28;20053;-73
2023/01/13 04:10:06;;;;;;;8.50;5.13;;;8.40;96.70;;;;;;4976921;28;20053;-73
2023/01/13 04:15:28;;;;;;;6.47;5.03;;;8.40;96.70;;;;;;4968197;28;20050;-73
2023/01/13 04:18:08;;;;;;;7.80;4.28;;;8.30;96.70;;;;;;4980654;28;20047;-73
2023/01/13 04:20:39;;;;;;;8.25;4.82;;;8.10;96.70;;;;;;4974556;28;20054;-74
2023/01/13 04:23:08;;;;;;;8.90;5.45;;;8.10;96.70;;;;;;4984836;28;20058;-74
2023/01/13 04:25:36;;;;;;;7.72;4.65;;;8.20;96.70;;;;;;4981761;28;20054;-73
2023/01/13 04:28:04;;;;;;;6.43;4.82;;;8.20;96.70;;;;;;4981831;28;20046;-73
2023/01/13 04:30:32;;;;;;;8.68;5.03;;;8.20;96.70;;;;;;4961389;28;20046;-73
2023/01/13 04:33:00;;;;;;;8.73;5.00;;;8.20;96.70;;;;;;4984698;28;20100;-74
2023/01/13 04:35:29;;;;;;;6.30;4.53;;;8.10;96.70;;;;;;4993888;28;20034;-73
2023/01/13 04:38:00;;;;;;;5.03;4.40;;;8.20;96.70;;;;;;4975901;28;20042;-73
2023/01/13 04:40:28;;;;;;;7.07;4.78;;;8.10;96.70;;;;;;4972960;28;20366;-74
2023/01/13 04:42:56;;;;;;;8.38;5.13;;;8.20;96.70;;;;;;4982018;28;20050;-74
2023/01/13 04:45:24;;;;;;;6.25;4.53;;;8.20;96.70;;;;;;4978505;28;20061;-73
2023/01/13 04:47:52;;;;;;;7.00;4.97;;;8.20;96.70;;;;;;4978332;28;20046;-74
2023/01/13 04:50:21;;;;;;;6.80;4.57;;;8.20;96.70;;;;;;4980878;28;20059;-73
2023/01/13 04:52:50;;;;;;;7.13;4.90;;;8.20;96.70;;;;;;4981104;28;20038;-74
2023/01/13 04:55:21;;;;;;;7.85;5.15;;;8.20;96.70;;;;;;4977286;28;20072;-73
2023/01/13 04:57:49;;;;;;;5.85;4.85;;;8.20;96.70;;;;;;4969716;28;20058;-74
2023/01/13 05:00:20;;;;;;;8.27;5.03;;;8.30;96.70;;;;;;4974601;28;20080;-73
2023/01/13 05:02:49;;;;;;;7.03;5.07;;;8.20;96.70;;;;;;4980608;28;20054;-73
2023/01/13 05:05:18;;;;;;;7.07;5.00;;;8.20;96.70;;;;;;4981234;28;20039;-74
2023/01/13 05:07:46;;;;;;;5.68;4.25;;;8.20;96.70;;;;;;4973956;28;20042;-74
2023/01/13 05:10:14;;;;;;;9.05;4.90;;;8.20;96.70;;;;;;4978037;28;20072;-73
2023/01/13 05:18:18;;;;;;;7.65;4.78;;;8.20;96.70;;;;;;4979243;28;20552;-73
2023/01/13 05:20:46;;;;;;;6.43;4.38;;;8.20;96.70;;;;;;4992216;28;20469;-74
2023/01/13 05:26:01;;;;;;;7.07;4.40;;;8.20;96.70;;;;;;4981118;28;20451;-73
2023/01/13 05:28:33;;;;;;;6.88;4.32;;;8.20;96.70;;;;;;4997478;28;20380;-73
2023/01/13 05:31:01;;;;;;;5.97;4.47;;;8.20;96.70;;;;;;4984029;28;20035;-73
2023/01/13 05:33:30;;;;;;;7.38;4.97;;;8.30;96.70;;;;;;4975874;28;20050;-73
2023/01/13 05:36:01;;;;;;;7.68;5.25;;;8.30;96.70;;;;;;4968218;28;20034;-74
2023/01/13 05:38:30;;;;;;;7.65;4.72;;;8.30;96.70;;;;;;4981757;28;20226;-73
2023/01/13 05:43:46;;;;;;;10.48;4.55;;;8.30;96.70;;;;;;4999237;28;20145;-73
2023/01/13 05:46:16;;;;;;;8.48;4.75;;;8.20;96.70;;;;;;4970199;28;20043;-73
2023/01/13 05:48:44;;;;;;;7.45;4.85;;;8.30;96.70;;;;;;4963973;28;20162;-73
2023/01/13 05:51:13;;;;;;;7.97;4.88;;;8.30;96.70;;;;;;4983420;28;20038;-73
2023/01/13 05:53:41;;;;;;;6.15;4.47;;;8.30;96.70;;;;;;4984642;28;20096;-73
2023/01/13 05:56:10;;;;;;;6.15;4.43;;;8.30;96.70;;;;;;4982694;28;20042;-74
2023/01/13 05:58:38;;;;;;;8.85;5.65;;;8.30;96.70;;;;;;4982525;28;20467;-73
2023/01/13 06:01:08;;;;;;;5.85;4.25;;;8.40;96.70;;;;;;4983273;28;20074;-73
2023/01/13 06:03:37;;;;;;;6.90;4.22;;;8.40;96.70;;;;;;4984354;28;20051;-73
2023/01/13 06:06:07;;;;;;;9.77;4.35;;;8.30;96.70;;;;;;4982881;28;20112;-74
2023/01/13 06:08:35;;;;;;;7.72;4.57;;;8.30;96.70;;;;;;4983479;28;20451;-74
2023/01/13 06:11:06;;;;;;;8.25;4.32;;;8.30;96.70;;;;;;4979586;28;20101;-73
2023/01/13 06:13:35;;;;;;;5.97;4.32;;;8.40;96.70;;;;;;4973423;28;20472;-73
2023/01/13 06:16:03;;;;;;;6.88;4.70;;;8.40;96.70;;;;;;4972668;28;20042;-74
2023/01/13 06:18:33;;;;;;;8.35;5.00;;;8.40;96.70;;;;;;4982650;28;20530;-73
2023/01/13 06:21:01;;;;;;;9.00;4.53;;;8.40;96.70;;;;;;4983974;28;20054;-73
2023/01/13 06:23:33;;;;;;;6.80;4.70;;;8.40;96.70;;;;;;4963630;28;20051;-74
2023/01/13 06:26:08;;;;;;;7.55;4.95;;;8.40;96.70;;;;;;4982512;28;20042;-74
2023/01/13 06:28:37;;;;;;;6.97;4.32;;;8.30;96.70;;;;;;4982863;28;20432;-74
2023/01/13 06:31:07;;;;;;;9.85;5.43;;;8.20;96.70;;;;;;4973292;28;20066;-73
2023/01/13 06:33:39;;;;;;;8.07;5.18;;;8.00;96.70;;;;;;4982756;28;20583;-73
2023/01/13 06:36:13;;;;;;;8.45;5.40;;;8.10;96.70;;;;;;4979150;28;20100;-73
2023/01/13 06:38:45;;;;;;;7.57;4.95;;;8.10;96.70;;;;;;4984288;28;20046;-73
2023/01/13 06:41:14;;;;;;;6.65;4.45;;;8.10;96.70;;;;;;4983004;28;20390;-73
2023/01/13 06:43:42;;;;;;;6.93;4.97;;;8.20;96.70;;;;;;4981435;28;20039;-73
2023/01/13 06:46:10;;;;;;;8.15;5.07;;;8.30;96.70;;;;;;4981680;28;20046;-73
2023/01/13 06:48:39;;;;;;;8.65;4.43;;;8.30;96.70;;;;;;4982529;28;20042;-72
2023/01/13 06:51:07;;;;;;;7.05;4.95;;;8.30;96.70;;;;;;4982542;28;20050;-74
2023/01/13 06:53:35;;;;;;;7.53;4.90;;;8.40;96.70;;;;;;4983195;28;20125;-74
2023/01/13 06:56:04;;;;;;;7.13;5.15;;;8.40;96.70;;;;;;4982520;28;20053;-73
2023/01/13 06:58:32;;;;;;;6.70;4.90;;;8.40;96.70;;;;;;4983475;28;20050;-73
2023/01/13 07:01:00;;;;;;;6.50;5.00;;;8.40;96.70;;;;;;4981724;28;20046;-74
2023/01/13 07:03:28;;;;;;;6.40;4.20;;;8.40;96.70;;;;;;4962181;28;20043;-73
2023/01/13 07:05:59;;;;;;;6.68;4.50;;;8.30;96.70;;;;;;4997207;28;20181;-73
2023/01/13 07:08:27;;;;;;;7.93;4.68;;;8.40;96.70;;;;;;4982389;28;20512;-73
2023/01/13 07:10:55;;;;;;;8.70;4.50;;;8.40;96.70;;;;;;4983477;28;20054;-75
2023/01/13 07:16:10;;;;;;;6.90;4.28;;;8.50;96.70;;;;;;4981377;28;20061;-73
2023/01/13 07:18:39;;;;;;;8.32;4.90;;;8.50;96.70;;;;;;4980853;28;20471;-73
2023/01/13 07:21:11;;;;;;;8.95;5.25;;;8.50;96.70;;;;;;4981187;28;20141;-73
2023/01/13 07:23:40;;;;;;;10.35;5.82;;;8.50;96.70;;;;;;4982298;28;20042;-74
2023/01/13 07:26:09;;;;;;;9.55;5.25;;;8.60;96.70;;;;;;4981622;28;20046;-74
2023/01/13 07:28:39;;;;;;;9.52;5.47;;;8.60;96.70;;;;;;4998028;28;20074;-74
2023/01/13 07:31:14;;;;;;;10.43;5.55;;;8.60;96.70;;;;;;4980446;28;20594;-73
2023/01/13 07:33:43;;;;;;;13.75;6.45;;;8.60;96.70;;;;;;4982130;28;20058;-73
2023/01/13 07:36:13;;;;;;;10.55;6.32;;;8.50;96.70;;;;;;4982569;28;20531;-73
2023/01/13 07:38:43;;;;;;;10.68;7.55;;;8.50;96.70;;;;;;4981615;28;20148;-73
2023/01/13 07:44:01;;;;;;;8.68;5.60;;;8.30;96.70;;;;;;4972589;28;20047;-73
2023/01/13 07:46:29;;;;;;;7.97;5.60;;;8.40;96.70;;;;;;4968290;28;20054;-73
2023/01/13 07:48:57;;;;;;;8.88;5.35;;;8.50;96.70;;;;;;4978265;28;20097;-74
2023/01/13 07:51:27;;;;;;;8.35;5.18;;;8.60;96.70;;;;;;4982975;28;20484;-73
2023/01/13 07:53:55;;;;;;;8.85;5.30;;;8.60;96.70;;;;;;4975104;28;20038;-73
2023/01/13 07:56:23;;;;;;;10.25;5.57;;;8.70;96.70;;;;;;4984131;28;20050;-74
2023/01/13 07:58:52;;;;;;;8.30;5.28;;;8.70;96.70;;;;;;4981741;28;20097;-75
2023/01/13 08:01:20;;;;;;;7.38;5.13;;;8.80;96.70;;;;;;4981260;28;20050;-75
2023/01/13 08:03:48;;;;;;;9.63;5.22;;;8.80;96.70;;;;;;4985462;28;20042;-75
2023/01/13 08:06:16;;;;;;;7.00;5.65;;;8.90;96.70;;;;;;4978535;28;20042;-73
2023/01/13 08:08:46;;;;;;;8.93;5.75;;;9.00;96.70;;;;;;4985591;28;20133;-74
2023/01/13 08:11:14;;;;;;;11.68;5.68;;;9.00;96.70;;;;;;4971149;28;20047;-74
2023/01/13 08:13:42;;;;;;;7.90;5.50;;;9.00;96.70;;;;;;4972728;28;20045;-74
2023/01/13 08:16:13;;;;;;;8.52;5.13;;;9.00;96.70;;;;;;4973705;28;20077;-73
2023/01/13 08:18:42;;;;;;;11.52;6.13;;;9.10;96.70;;;;;;4963235;28;20054;-73
2023/01/13 08:21:12;;;;;;;10.43;6.45;;;9.10;96.70;;;;;;4974490;28;20055;-73
2023/01/13 08:23:42;;;;;;;9.55;7.00;;;9.10;96.70;;;;;;4977865;28;20078;-75
2023/01/13 08:26:14;;;;;;;8.52;5.97;;;9.10;96.70;;;;;;4980120;28;20138;-74
2023/01/13 08:28:42;;;;;;;7.60;5.68;;;9.20;96.70;;;;;;4984375;28;20049;-74
2023/01/13 08:31:12;;;;;;;10.23;5.45;;;9.20;96.70;;;;;;4987809;28;20053;-74
2023/01/13 08:33:41;;;;;;;10.35;5.63;;;9.20;96.70;;;;;;4978151;28;20555;-74
2023/01/13 08:36:11;;;;;;;8.57;5.25;;;9.20;96.70;;;;;;4981970;28;20104;-73
2023/01/13 08:38:40;;;;;;;10.30;5.72;;;9.20;96.70;;;;;;4971421;28;20046;-74
2023/01/13 08:41:11;;;;;;;7.90;5.40;;;9.20;96.70;;;;;;4972309;28;20046;-73
2023/01/13 08:43:39;;;;;;;10.00;5.25;;;9.20;96.70;;;;;;4978420;28;20044;-73
2023/01/13 08:46:08;;;;;;;12.05;6.53;;;9.20;96.70;;;;;;4995824;28;20698;-74
2023/01/13 08:48:36;;;;;;;8.95;6.00;;;9.20;96.70;;;;;;4976892;28;20053;-74
2023/01/13 08:51:05;;;;;;;8.80;5.75;;;9.20;96.70;;;;;;4976210;28;20045;-73
2023/01/13 08:53:34;;;;;;;12.45;6.15;;;9.20;96.70;;;;;;4999684;28;20508;-74
2023/01/13 08:56:05;;;;;;;7.55;5.45;;;9.20;96.70;;;;;;4979402;28;20067;-74
2023/01/13 08:58:35;;;;;;;8.27;5.20;;;9.30;96.70;;;;;;4971721;28;20790;-75
2023/01/13 09:01:04;;;;;;;9.55;6.03;;;9.30;96.70;;;;;;4976985;28;20543;-74
2023/01/13 09:03:33;;;;;;;7.60;5.35;;;9.30;96.70;;;;;;4975838;28;20047;-74
2023/01/13 09:06:01;;;;;;;9.57;5.68;;;9.30;96.70;;;;;;4977726;28;20038;-74
2023/01/13 09:08:29;;;;;;;7.75;5.13;;;9.40;96.70;;;;;;4974300;28;20047;-73
2023/01/13 09:10:58;;;;;;;8.48;5.10;;;9.40;96.70;;;;;;4978924;28;20066;-74
2023/01/13 09:13:26;;;;;;;8.10;5.50;;;9.40;96.70;;;;;;4980740;28;20097;-74
2023/01/13 09:15:55;;;;;;;7.72;5.70;;;9.50;96.70;;;;;;4974522;28;20051;-74
2023/01/13 09:18:23;;;;;;;8.48;5.57;;;9.60;96.70;;;;;;4972718;28;20516;-74
2023/01/13 09:20:52;;;;;;;6.93;5.20;;;9.50;96.70;;;;;;4967918;28;20054;-75
2023/01/13 09:23:20;;;;;;;7.85;5.65;;;9.50;96.70;;;;;;4985252;28;20046;-75
2023/01/13 09:25:48;;;;;;;7.13;4.88;;;9.50;96.70;;;;;;4984000;28;20038;-75
2023/01/13 09:28:16;;;;;;;7.88;5.50;;;9.50;96.70;;;;;;4981632;28;20078;-74
2023/01/13 09:30:44;;;;;;;8.30;5.85;;;9.60;96.70;;;;;;4979574;28;20141;-74
2023/01/13 09:36:01;;;;;;;10.20;6.57;;;9.80;96.70;;;;;;4973472;28;20382;-74
2023/01/13 09:38:29;;;;;;;8.30;6.55;;;9.80;96.70;;;;;;4978377;28;20042;-74
2023/01/13 09:40:57;;;;;;;11.45;6.78;;;9.90;96.70;;;;;;4978117;28;20048;-74
2023/01/13 09:46:47;;;;;;;12.50;7.55;;;10.10;96.70;;;;;;4973770;28;20050;-75
2023/01/13 09:49:22;;;;;;;12.02;6.70;;;10.20;96.70;;;;;;4996642;28;20131;-74
2023/01/13 09:51:56;;;;;;;9.57;6.95;;;10.40;96.70;;;;;;4977531;28;20129;-75
2023/01/13 09:54:31;;;;;;;8.98;7.60;;;10.40;96.70;;;;;;4971225;28;20074;-74
2023/01/13 09:56:59;;;;;;;8.88;7.40;;;10.40;96.70;;;;;;4975920;28;20373;-75
2023/01/13 09:59:35;;;;;;;10.25;8.05;;;10.40;96.70;;;;;;4974824;28;20046;-74
2023/01/13 10:02:32;;;;;;;12.90;7.82;;;10.50;96.70;;;;;;4998028;28;20054;-74
2023/01/13 10:05:16;;;;;;;11.18;7.25;;;10.40;96.70;;;;;;4977120;28;20047;-74
2023/01/13 10:07:50;;;;;;;10.52;7.43;;;10.50;96.70;;;;;;4964460;28;20168;-75
2023/01/13 10:10:25;;;;;;;10.25;7.65;;;10.70;96.70;;;;;;4971866;28;20149;-74
2023/01/13 10:15:48;;;;;;;9.68;7.00;;;11.10;96.70;;;;;;4983792;28;20046;-74
2023/01/13 10:18:23;;;;;;;11.77;6.82;;;11.30;96.70;;;;;;4982099;28;20046;-74
2023/01/13 10:21:00;;;;;;;8.88;6.43;;;11.50;96.70;;;;;;4982641;28;20054;-74
2023/01/13 10:23:55;;;;;;;7.75;5.05;;;11.70;96.70;;;;;;4982295;28;20046;-73
2023/01/13 10:26:49;;;;;;;6.07;4.63;;;11.80;96.70;;;;;;4981803;28;20053;-74
2023/01/13 10:29:20;;;;;;;10.48;5.10;;;11.80;96.70;;;;;;4981820;28;20069;-76
2023/01/13 10:31:48;;;;;;;6.47;4.65;;;11.90;96.70;;;;;;4975434;28;20931;-74
2023/01/13 10:34:17;;;;;;;5.13;4.35;;;11.80;96.70;;;;;;4980528;28;20096;-74
2023/01/13 10:37:07;;;;;;;6.88;5.07;;;11.80;96.70;;;;;;4975165;28;20058;-74
2023/01/13 10:39:40;;;;;;;8.15;5.18;;;11.80;96.70;;;;;;4972453;28;20051;-74
2023/01/13 10:42:13;;;;;;;6.28;5.05;;;11.70;96.70;;;;;;4976269;28;20058;-74
2023/01/13 10:44:49;;;;;;;6.30;4.80;;;11.80;96.70;;;;;;4980154;28;20054;-74
2023/01/13 10:47:21;;;;;;;5.65;4.22;;;11.80;96.70;;;;;;4976470;28;20053;-74
2023/01/13 10:50:21;;;;;;;9.25;5.13;;;11.80;96.70;;;;;;4999008;28;20055;-75
2023/01/13 10:52:59;;;;;;;7.18;4.65;;;11.80;96.70;;;;;;4986958;28;20073;-74
2023/01/13 10:55:29;;;;;;;5.72;4.28;;;11.80;96.70;;;;;;4982037;28;20689;-76
2023/01/13 10:58:10;;;;;;;6.72;5.00;;;11.80;96.70;;;;;;4982432;28;20058;-75
2023/01/13 11:00:38;;;;;;;8.10;4.82;;;11.80;96.70;;;;;;4981957;28;20077;-74
2023/01/13 11:03:19;;;;;;;9.40;5.68;;;11.80;96.70;;;;;;4980847;28;20393;-74
2023/01/13 11:05:53;;;;;;;10.88;5.30;;;11.80;96.70;;;;;;4979890;28;20120;-75
2023/01/13 11:08:25;;;;;;;9.02;5.28;;;11.80;96.70;;;;;;4982596;28;20077;-74
2023/01/13 11:10:55;;;;;;;7.55;5.32;;;11.70;96.70;;;;;;4981753;28;20575;-75
2023/01/13 11:13:29;;;;;;;8.60;5.28;;;11.70;96.70;;;;;;4996330;28;20062;-74
2023/01/13 11:16:02;;;;;;;9.93;5.25;;;11.70;96.70;;;;;;4983679;28;20129;-74
2023/01/13 11:19:00;;;;;;;7.80;6.10;;;11.70;96.70;;;;;;4983139;28;20046;-74
2023/01/13 11:21:34;;;;;;;14.50;9.70;;;11.70;96.70;;;;;;4982629;28;20169;-75
2023/01/13 11:24:13;;;;;;;16.80;12.15;;;11.60;96.70;;;;;;4981774;28;20050;-74
2023/01/13 11:26:46;;;;;;;14.50;9.48;;;11.60;96.70;;;;;;4981800;28;20794;-74
2023/01/13 11:29:23;;;;;;;11.10;6.88;;;11.60;96.70;;;;;;4982997;28;20168;-74
2023/01/13 11:31:59;;;;;;;10.30;8.18;;;11.70;96.70;;;;;;4985481;28;20149;-73
2023/01/13 11:34:32;;;;;;;11.05;6.80;;;11.70;96.70;;;;;;4980721;28;20046;-75
2023/01/13 11:37:06;;;;;;;6.95;5.50;;;11.80;96.70;;;;;;4984933;28;20050;-75
2023/01/13 11:39:46;;;;;;;7.60;6.00;;;11.90;96.70;;;;;;4968375;28;20113;-74
2023/01/13 11:42:22;;;;;;;10.00;5.70;;;12.00;96.70;;;;;;4967783;28;20051;-74
2023/01/13 11:45:04;;;;;;;9.75;7.57;;;12.00;96.70;;;;;;4966744;28;20050;-74
2023/01/13 11:47:34;;;;;;;10.07;7.45;;;12.00;96.70;;;;;;4981275;28;20131;-75
2023/01/13 11:50:03;;;;;;;10.02;6.43;;;11.90;96.70;;;;;;4978502;28;20049;-75
2023/01/13 11:52:47;;;;;;;7.25;6.35;;;11.90;96.70;;;;;;4987176;28;20550;-74
2023/01/13 11:55:31;;;;;;;9.70;6.80;;;12.00;96.70;;;;;;5001233;28;20132;-73
2023/01/13 11:58:33;;;;;;;7.97;5.72;;;12.00;96.70;;;;;;5001351;28;20050;-75
2023/01/13 12:01:34;;;;;;;10.00;5.50;;;12.00;96.70;;;;;;4973429;28;20093;-75
2023/01/13 12:04:19;;;;;;;6.65;5.15;;;12.10;96.70;;;;;;4985161;28;20050;-75
2023/01/13 12:06:58;;;;;;;6.28;4.90;;;12.20;96.70;;;;;;4985617;28;20046;-74
2023/01/13 12:09:37;;;;;;;7.75;5.45;;;12.30;96.70;;;;;;4987508;28;20452;-74
2023/01/13 12:12:19;;;;;;;7.63;5.00;;;12.40;96.70;;;;;;4981476;28;20054;-74
2023/01/13 12:15:17;;;;;;;8.63;5.72;;;12.40;96.70;;;;;;4977394;28;20641;-74
2023/01/13 12:17:58;;;;;;;8.77;5.38;;;12.50;96.70;;;;;;4982868;28;20058;-74
2023/01/13 12:20:36;;;;;;;9.82;6.47;;;12.50;96.70;;;;;;4974938;28;20473;-74
2023/01/13 12:23:12;;;;;;;10.68;5.57;;;12.60;96.70;;;;;;4966158;28;20054;-74
2023/01/13 12:25:45;;;;;;;6.30;5.20;;;12.60;96.70;;;;;;4966460;28;20046;-74
2023/01/13 12:28:19;;;;;;;9.45;5.70;;;12.50;96.70;;;;;;4984599;28;20357;-74
2023/01/13 12:30:52;;;;;;;7.45;5.38;;;12.40;96.70;;;;;;4984636;28;20581;-74
2023/01/13 12:33:35;;;;;;;8.05;5.65;;;12.40;96.70;;;;;;4984878;28;20074;-74
2023/01/13 12:36:13;;;;;;;9.13;6.15;;;12.40;96.70;;;;;;4981685;28;20117;-74
2023/01/13 12:38:48;;;;;;;8.38;6.03;;;12.40;96.70;;;;;;4985055;28;20043;-74
2023/01/13 12:41:29;;;;;;;10.43;7.13;;;12.30;96.70;;;;;;4979838;28;20039;-74
2023/01/13 12:44:19;;;;;;;11.38;7.80;;;12.30;96.70;;;;;;4966430;28;20180;-74
2023/01/13 12:46:54;;;;;;;9.32;6.18;;;12.20;96.70;;;;;;4975326;28;20439;-74
2023/01/13 12:49:31;;;;;;;8.05;6.40;;;12.10;96.70;;;;;;4985685;28;20050;-74
2023/01/13 12:52:18;;;;;;;12.75;8.60;;;12.00;96.70;;;;;;4976113;28;20061;-74
2023/01/13 12:55:04;;;;;;;;;;;12.00;96.70;;;;;;4967969;28;20054;-74
2023/01/13 12:57:35;;;;;;;10.43;8.00;;;11.90;96.70;;;;;;4982778;28;19968;-74
2023/01/13 13:00:16;;;;;;;8.05;6.18;;;11.90;96.70;;;;;;4976573;28;20871;-74
2023/01/13 13:03:20;;;;;;;7.05;5.63;;;11.80;96.70;;;;;;4985491;28;20555;-74
2023/01/13 13:05:59;;;;;;;9.80;7.07;;;11.70;96.70;;;;;;4985334;28;20046;-74
2023/01/13 13:08:56;;;;;;;14.23;7.88;;;11.60;96.70;;;;;;4984240;28;20046;-74
2023/01/13 13:15:01;;;;;;;9.88;6.68;;;11.60;96.70;;;;;;4984022;28;20045;-74
2023/01/13 13:18:01;;;;;;;10.80;7.05;;;11.60;96.70;;;;;;4980242;28;20101;-74
2023/01/13 13:20:56;;;;;;;7.22;5.70;;;11.50;96.70;;;;;;4981771;28;20527;-75
2023/01/13 13:23:47;;;;;;;9.18;6.70;;;11.50;96.70;;;;;;4981895;28;20242;-75
2023/01/13 13:26:22;;;;;;;12.40;9.85;;;11.50;96.70;;;;;;4985392;28;20499;-75
2023/01/13 13:29:21;;;;;;;10.07;8.65;;;11.50;96.70;;;;;;4985096;28;20050;-75
2023/01/13 13:32:19;;;;;;;11.02;7.53;;;11.70;96.70;;;;;;4977210;28;20062;-74
2023/01/13 13:35:00;;;;;;;10.27;6.82;;;11.80;96.70;;;;;;4980204;28;20058;-74
2023/01/13 13:49:12;;;;;;;13.68;7.35;;;11.60;96.70;;;;;;4978714;28;20051;-74
2023/01/13 13:51:48;;;;;;;13.18;7.45;;;11.70;96.70;;;;;;4974264;28;20052;-74
2023/01/13 13:54:19;;;;;;;10.32;7.40;;;11.60;96.70;;;;;;4972829;28;20043;-75
2023/01/13 13:56:49;;;;;;;8.98;6.90;;;11.60;96.70;;;;;;4975385;28;21057;-74
2023/01/13 13:59:21;;;;;;;9.50;6.82;;;11.60;96.70;;;;;;4983163;28;20042;-74
2023/01/13 14:01:59;;;;;;;15.07;8.90;;;11.60;96.70;;;;;;4984782;28;20052;-74
2023/01/13 14:04:30;;;;;;;15.73;10.90;;;11.60;96.70;;;;;;4984520;28;20045;-76
2023/01/13 14:07:05;;;;;;;13.80;9.63;;;11.60;96.70;;;;;;4974035;28;20046;-74
2023/01/13 14:09:40;;;;;;;20.42;13.98;;;11.60;96.70;;;;;;4990418;28;20058;-74
2023/01/13 14:12:17;;;;;;;24.88;19.30;;;11.60;96.70;;;;;;4984159;28;20364;-75
2023/01/13 14:14:47;;;;;;;28.73;22.90;;;11.60;96.70;;;;;;4982295;28;20078;-74
2023/01/13 14:17:21;;;;;;;16.85;14.15;;;11.60;96.70;;;;;;4975469;28;20038;-74
2023/01/13 14:19:55;;;;;;;12.27;8.38;;;11.60;96.70;;;;;;4997690;28;20511;-74